Time;durP1;ratioP1;P1;durP2;ratioP2;P2;SDS_P1;SDS_P2;PMS_P1;PMS_P2;Temp;Humidity;BMP_temperature;BMP_pressure;BME280_temperature;BME280_humidity;BME280_pressure;Samples;Min_cycle;Max_cycle;Signal;HPM_P1;HPM_P2
2023/10/18 00:01:01;;;;;;;;;;;6.80;84.60;;;;;;5059660;28;20404;-79
2023/10/18 00:03:30;;;;;;;;;;;6.70;84.60;;;;;;5071911;28;19912;-80
2023/10/18 00:05:57;;;;;;;;;;;6.70;84.90;;;;;;5073799;28;19916;-80
2023/10/18 00:08:25;;;;;;;;;;;6.80;84.50;;;;;;5072663;28;19912;-78
2023/10/18 00:10:53;;;;;;;;;;;6.80;84.80;;;;;;5075282;28;19969;-80
2023/10/18 00:13:21;;;;;;;;;;;6.70;85.20;;;;;;5067153;28;20293;-80
2023/10/18 00:15:52;;;;;;;;;;;6.80;84.20;;;;;;5068963;28;20011;-80
2023/10/18 00:18:18;;;;;;;;;;;6.80;84.00;;;;;;5071422;28;19920;-80
2023/10/18 00:20:44;;;;;;;;;;;6.80;84.30;;;;;;5075053;28;19912;-79
2023/10/18 00:23:10;;;;;;;;;;;6.80;84.40;;;;;;5074122;28;19942;-79
2023/10/18 00:25:36;;;;;;;;;;;6.70;84.50;;;;;;5073172;28;19940;-79
2023/10/18 00:28:03;;;;;;;;;;;6.70;84.30;;;;;;5074111;28;19919;-79
2023/10/18 00:30:30;;;;;;;;;;;6.60;84.70;;;;;;5072258;28;19927;-78
2023/10/18 00:32:55;;;;;;;;;;;6.70;84.90;;;;;;5070055;28;19939;-79
2023/10/18 00:35:23;;;;;;;;;;;6.60;84.60;;;;;;5073875;28;20538;-79
2023/10/18 00:37:55;;;;;;;;;;;6.60;84.90;;;;;;5071566;28;19916;-79
2023/10/18 00:43:22;;;;;;;;;;;6.70;83.90;;;;;;5070022;28;19919;-78
2023/10/18 00:45:48;;;;;;;;;;;6.80;84.30;;;;;;5072409;28;20294;-80
2023/10/18 00:48:14;;;;;;;;;;;6.60;84.30;;;;;;5071516;28;20195;-79
2023/10/18 00:50:43;;;;;;;;;;;6.60;84.40;;;;;;5070830;28;19917;-80
2023/10/18 00:53:09;;;;;;;;;;;6.60;84.50;;;;;;5067204;28;20381;-79
2023/10/18 00:55:34;;;;;;;;;;;6.40;84.30;;;;;;5070842;28;19945;-79
2023/10/18 00:58:04;;;;;;;;;;;6.50;84.70;;;;;;5071371;28;20130;-79
2023/10/18 01:00:30;;;;;;;;;;;6.50;84.60;;;;;;5073682;28;20413;-79
2023/10/18 01:02:59;;;;;;;;;;;6.30;84.40;;;;;;5073137;28;19912;-79
2023/10/18 01:05:25;;;;;;;;;;;6.30;84.50;;;;;;5072300;28;20003;-79
2023/10/18 01:07:53;;;;;;;;;;;6.10;84.80;;;;;;5071485;28;19916;-79
2023/10/18 01:10:23;;;;;;;;;;;6.00;85.10;;;;;;5071499;28;19913;-79
2023/10/18 01:12:52;;;;;;;;;;;6.00;85.30;;;;;;5063965;28;19968;-80
2023/10/18 01:15:19;;;;;;;;;;;6.10;85.30;;;;;;5071186;28;19947;-80
2023/10/18 01:17:45;;;;;;;;;;;6.30;85.30;;;;;;5081183;28;19924;-79
2023/10/18 01:20:53;;;;;;;;;;;6.30;85.00;;;;;;5071641;28;20014;-80
2023/10/18 01:22:59;;;;;;;;;;;6.30;84.90;;;;;;5053942;28;19932;-80
2023/10/18 01:25:25;;;;;;;;;;;6.20;84.90;;;;;;5069654;28;19914;-79
2023/10/18 01:27:51;;;;;;;;;;;6.20;84.90;;;;;;5071566;28;19920;-80
2023/10/18 01:30:20;;;;;;;;;;;6.00;84.90;;;;;;5070524;28;19913;-80
2023/10/18 01:32:45;;;;;;;;;;;6.10;85.20;;;;;;5071039;28;20409;-80
2023/10/18 01:35:15;;;;;;;;;;;6.00;85.10;;;;;;5068872;28;19912;-80
2023/10/18 01:37:43;;;;;;;;;;;5.90;85.30;;;;;;5070126;28;19916;-78
2023/10/18 01:42:56;;;;;;;;;;;5.80;85.30;;;;;;5070746;28;19934;-80
2023/10/18 01:45:22;;;;;;;;;;;5.60;85.50;;;;;;5069622;28;19913;-79
2023/10/18 01:47:49;;;;;;;;;;;5.60;85.80;;;;;;5069998;28;20400;-80
2023/10/18 01:50:15;;;;;;;;;;;5.50;86.10;;;;;;5071029;28;19916;-80
2023/10/18 01:52:42;;;;;;;;;;;5.60;86.00;;;;;;5076150;28;19923;-79
2023/10/18 01:55:09;;;;;;;;;;;5.60;86.00;;;;;;5070158;28;19966;-80
2023/10/18 01:57:34;;;;;;;;;;;5.60;85.80;;;;;;5064658;28;19958;-80
2023/10/18 02:00:00;;;;;;;;;;;5.60;85.80;;;;;;5070152;28;19916;-79
2023/10/18 02:02:26;;;;;;;;;;;5.70;85.80;;;;;;5074331;28;20147;-78
2023/10/18 02:04:53;;;;;;;;;;;5.70;85.70;;;;;;5066359;28;20340;-79
2023/10/18 02:07:19;;;;;;;;;;;5.60;85.60;;;;;;5064241;28;19958;-79
2023/10/18 02:09:48;;;;;;;;;;;5.60;85.60;;;;;;5062599;28;19920;-80
2023/10/18 02:12:20;;;;;;;;;;;5.60;85.50;;;;;;5066744;28;19921;-79
2023/10/18 02:14:45;;;;;;;;;;;5.70;85.20;;;;;;5068948;28;20492;-79
2023/10/18 02:17:11;;;;;;;;;;;5.60;85.30;;;;;;5069406;28;19919;-79
2023/10/18 02:19:37;;;;;;;;;;;5.60;85.50;;;;;;5068229;28;19935;-79
2023/10/18 02:22:07;;;;;;;;;;;5.80;85.60;;;;;;5069445;28;19916;-78
2023/10/18 02:24:36;;;;;;;;;;;5.90;85.50;;;;;;5084125;28;21277;-78
2023/10/18 02:27:02;;;;;;;;;;;5.80;85.10;;;;;;5071530;28;19919;-78
2023/10/18 02:29:35;;;;;;;;;;;5.70;84.90;;;;;;5068010;28;19921;-77
2023/10/18 02:32:04;;;;;;;;;;;5.80;84.90;;;;;;5067153;28;19916;-80
2023/10/18 02:34:34;;;;;;;;;;;5.70;84.70;;;;;;5064381;28;19958;-80
2023/10/18 02:37:01;;;;;;;;;;;5.60;84.90;;;;;;5073025;28;19920;-80
2023/10/18 02:39:32;;;;;;;;;;;5.60;85.10;;;;;;5070169;28;19908;-78
2023/10/18 02:41:58;;;;;;;;;;;5.60;85.20;;;;;;5069179;28;19921;-79
2023/10/18 02:44:24;;;;;;;;;;;5.60;85.20;;;;;;5071006;28;19915;-80
2023/10/18 02:46:54;;;;;;;;;;;5.60;85.30;;;;;;5071340;28;20065;-79
2023/10/18 02:49:21;;;;;;;;;;;5.60;85.30;;;;;;5072149;28;20137;-80
2023/10/18 02:51:46;;;;;;;;;;;5.60;85.10;;;;;;5074422;28;19917;-81
2023/10/18 02:56:40;;;;;;;;;;;5.70;85.20;;;;;;5076364;28;19920;-79
2023/10/18 02:59:09;;;;;;;;;;;5.60;85.10;;;;;;5075661;28;20011;-80
2023/10/18 03:01:39;;;;;;;;;;;5.60;85.30;;;;;;5073591;28;19912;-79
2023/10/18 03:04:09;;;;;;;;;;;5.50;85.30;;;;;;5074902;28;19919;-80
2023/10/18 03:06:35;;;;;;;;;;;5.60;85.30;;;;;;5070963;28;19923;-80
2023/10/18 03:09:01;;;;;;;;;;;5.60;85.30;;;;;;5073505;28;20333;-78
2023/10/18 03:11:27;;;;;;;;;;;5.60;85.00;;;;;;5068242;28;19913;-77
2023/10/18 03:13:57;;;;;;;;;;;5.70;84.80;;;;;;5073104;28;20000;-80
2023/10/18 03:19:09;;;;;;;;;;;5.60;84.90;;;;;;5074493;28;20377;-80
2023/10/18 03:21:35;;;;;;;;;;;5.70;85.20;;;;;;5071597;28;19919;-79
2023/10/18 03:24:01;;;;;;;;;;;5.70;85.20;;;;;;5076734;28;19912;-79
2023/10/18 03:26:41;;;;;;;;;;;5.80;85.40;;;;;;5070994;28;20273;-79
2023/10/18 03:29:11;;;;;;;;;;;5.80;84.90;;;;;;5067923;28;19915;-79
2023/10/18 03:31:48;;;;;;;;;;;5.60;84.30;;;;;;5073628;28;19966;-80
2023/10/18 03:34:19;;;;;;;;;;;5.50;84.60;;;;;;5074423;28;19951;-78
2023/10/18 03:36:54;;;;;;;;;;;5.40;84.70;;;;;;5072190;28;19921;-80
2023/10/18 03:39:25;;;;;;;;;;;5.30;84.80;;;;;;5074795;28;19912;-80
2023/10/18 03:41:58;;;;;;;;;;;5.50;85.10;;;;;;5072371;28;19925;-80
2023/10/18 03:44:27;;;;;;;;;;;5.50;85.20;;;;;;5071723;28;20405;-78
2023/10/18 03:47:03;;;;;;;;;;;5.50;85.00;;;;;;5080287;28;19986;-79
2023/10/18 03:51:56;;;;;;;;;;;5.50;85.20;;;;;;5072651;28;19922;-79
2023/10/18 03:54:23;;;;;;;;;;;5.40;85.10;;;;;;5071045;28;19919;-79
2023/10/18 03:56:52;;;;;;;;;;;5.30;84.90;;;;;;5084129;28;19927;-80
2023/10/18 03:59:21;;;;;;;;;;;5.30;85.30;;;;;;5071401;28;19920;-80
2023/10/18 04:02:05;;;;;;;;;;;5.30;85.30;;;;;;5078765;28;19920;-79
2023/10/18 04:04:34;;;;;;;;;;;5.20;85.30;;;;;;5072998;28;19919;-79
2023/10/18 04:07:01;;;;;;;;;;;5.10;85.50;;;;;;5072982;28;19913;-79
2023/10/18 04:09:27;;;;;;;;;;;5.30;85.90;;;;;;5078081;28;19916;-79
2023/10/18 04:11:53;;;;;;;;;;;5.30;85.60;;;;;;5077534;28;19988;-79
2023/10/18 04:14:22;;;;;;;;;;;5.30;85.10;;;;;;5074801;28;19948;-79
2023/10/18 04:16:56;;;;;;;;;;;5.10;85.10;;;;;;5074116;28;20340;-79
2023/10/18 04:19:22;;;;;;;;;;;5.10;85.50;;;;;;5071015;28;19919;-79
2023/10/18 04:21:52;;;;;;;;;;;5.30;85.60;;;;;;5087737;28;19975;-80
2023/10/18 04:24:20;;;;;;;;;;;5.20;85.40;;;;;;5072263;28;20384;-80
2023/10/18 04:26:47;;;;;;;;;;;5.10;85.40;;;;;;5069868;28;20393;-79
2023/10/18 04:29:22;;;;;;;;;;;5.20;85.50;;;;;;5064807;28;20027;-79
2023/10/18 04:31:49;;;;;;;;;;;5.20;85.60;;;;;;5087439;28;19912;-79
2023/10/18 04:34:18;;;;;;;;;;;5.20;85.00;;;;;;5068159;28;20409;-80
2023/10/18 04:36:44;;;;;;;;;;;5.10;85.10;;;;;;5069155;28;20042;-80
2023/10/18 04:39:11;;;;;;;;;;;5.00;85.50;;;;;;5069632;28;19942;-78
2023/10/18 04:41:37;;;;;;;;;;;5.00;86.00;;;;;;5067529;28;19944;-79
2023/10/18 04:44:05;;;;;;;;;;;5.10;85.70;;;;;;5064866;28;20382;-79
2023/10/18 04:46:31;;;;;;;;;;;5.10;85.60;;;;;;5066123;28;20352;-80
2023/10/18 04:51:27;;;;;;;;;;;5.00;85.70;;;;;;5070658;28;20006;-80
2023/10/18 04:54:08;;;;;;;;;;;4.90;85.80;;;;;;5068843;28;20374;-79
2023/10/18 04:56:34;;;;;;;;;;;4.90;86.20;;;;;;5069809;28;19947;-80
2023/10/18 04:59:11;;;;;;;;;;;5.00;85.80;;;;;;5071010;28;19952;-80
2023/10/18 05:02:01;;;;;;;;;;;4.90;85.90;;;;;;5065551;28;20297;-81
2023/10/18 05:04:29;;;;;;;;;;;4.90;86.10;;;;;;5071761;28;19912;-80
2023/10/18 05:06:56;;;;;;;;;;;5.00;85.80;;;;;;5073791;28;19923;-82
2023/10/18 05:09:31;;;;;;;;;;;4.90;86.00;;;;;;5067821;28;19991;-80
2023/10/18 05:11:58;;;;;;;;;;;5.00;85.90;;;;;;5065240;28;19920;-81
2023/10/18 05:14:35;;;;;;;;;;;4.90;85.90;;;;;;5069489;28;19912;-82
2023/10/18 05:17:22;;;;;;;;;;;4.90;85.90;;;;;;5066753;28;20385;-82
2023/10/18 05:19:48;;;;;;;;;;;5.00;85.90;;;;;;5070503;28;20008;-79
2023/10/18 05:22:20;;;;;;;;;;;5.00;85.70;;;;;;5071560;28;20050;-80
2023/10/18 05:24:55;;;;;;;;;;;4.90;85.60;;;;;;5064659;28;19919;-83
2023/10/18 05:27:24;;;;;;;;;;;4.90;85.50;;;;;;5067820;28;19935;-81
2023/10/18 05:29:53;;;;;;;;;;;4.90;85.60;;;;;;5068282;28;19936;-82
2023/10/18 05:43:30;;;;;;;;;;;4.90;85.70;;;;;;5066506;28;20431;-82
2023/10/18 05:46:00;;;;;;;;;;;4.90;86.10;;;;;;5068282;28;20313;-82
2023/10/18 05:48:25;;;;;;;;;;;5.00;85.90;;;;;;5068908;28;19913;-82
2023/10/18 05:53:35;;;;;;;;;;;5.10;85.30;;;;;;5063458;28;19924;-84
2023/10/18 05:56:07;;;;;;;;;;;5.10;85.30;;;;;;5070366;28;19920;-83
2023/10/18 05:58:33;;;;;;;;;;;5.20;85.20;;;;;;5070392;28;20039;-82
2023/10/18 06:00:58;;;;;;;;;;;5.30;84.20;;;;;;5071637;28;19946;-85
2023/10/18 06:03:27;;;;;;;;;;;5.30;84.60;;;;;;5067990;28;19951;-86
2023/10/18 06:05:55;;;;;;;;;;;5.30;84.90;;;;;;5067151;28;19916;-83
2023/10/18 06:08:22;;;;;;;;;;;5.40;84.70;;;;;;5067378;28;19916;-83
2023/10/18 06:11:00;;;;;;;;;;;5.50;84.90;;;;;;5081520;28;19913;-83
2023/10/18 06:13:27;;;;;;;;;;;5.50;84.70;;;;;;5069663;28;19966;-84
2023/10/18 06:15:52;;;;;;;;;;;5.50;84.80;;;;;;5068002;28;19946;-83
2023/10/18 06:18:25;;;;;;;;;;;5.60;84.60;;;;;;5070952;28;19913;-82
2023/10/18 06:20:53;;;;;;;;;;;5.50;83.90;;;;;;5065523;28;19926;-86
2023/10/18 06:23:36;;;;;;;;;;;5.50;84.20;;;;;;5065036;28;19913;-84
2023/10/18 06:26:27;;;;;;;;;;;5.60;84.00;;;;;;5063166;28;20438;-83
2023/10/18 06:28:53;;;;;;;;;;;5.50;83.60;;;;;;5071357;28;19984;-85
2023/10/18 06:31:19;;;;;;;;;;;5.50;83.30;;;;;;5085157;28;19912;-87
2023/10/18 06:33:44;;;;;;;;;;;5.60;83.60;;;;;;5078186;28;19947;-85
2023/10/18 06:36:13;;;;;;;;;;;5.50;83.70;;;;;;5068202;28;19963;-85
2023/10/18 06:38:39;;;;;;;;;;;5.50;83.90;;;;;;5069752;28;19920;-85
2023/10/18 06:41:10;;;;;;;;;;;5.40;84.10;;;;;;5070547;28;20281;-84
2023/10/18 06:43:36;;;;;;;;;;;5.40;84.30;;;;;;5065221;28;19908;-85
2023/10/18 06:46:04;;;;;;;;;;;5.40;84.30;;;;;;5068428;28;19919;-85
2023/10/18 06:48:30;;;;;;;;;;;5.40;84.20;;;;;;5062974;28;19919;-84
2023/10/18 06:50:57;;;;;;;;;;;5.40;84.10;;;;;;5057490;28;19955;-82
2023/10/18 06:53:25;;;;;;;;;;;5.30;84.30;;;;;;5075164;28;19909;-83
2023/10/18 07:00:55;;;;;;;;;;;5.50;84.50;;;;;;5066575;28;19940;-83
2023/10/18 07:03:33;;;;;;;;;;;5.50;84.50;;;;;;5069884;28;19921;-84
2023/10/18 07:06:04;;;;;;;;;;;5.50;84.60;;;;;;5070919;28;20331;-83
2023/10/18 07:08:32;;;;;;;;;;;5.50;84.60;;;;;;5069891;28;19913;-83
2023/10/18 07:11:01;;;;;;;;;;;5.40;84.90;;;;;;5066129;28;19916;-83
2023/10/18 07:13:33;;;;;;;;;;;5.40;85.10;;;;;;5068096;28;19978;-83
2023/10/18 07:16:00;;;;;;;;;;;5.40;85.10;;;;;;5069042;28;19913;-84
2023/10/18 07:18:27;;;;;;;;;;;5.40;85.20;;;;;;5068851;28;19936;-84
2023/10/18 07:20:52;;;;;;;;;;;5.50;85.20;;;;;;5063797;28;19955;-84
2023/10/18 07:23:21;;;;;;;;;;;5.50;85.30;;;;;;5064918;28;19909;-84
2023/10/18 07:25:48;;;;;;;;;;;5.50;85.30;;;;;;5063230;28;19909;-83
2023/10/18 07:28:13;;;;;;;;;;;5.50;85.00;;;;;;5068138;28;20103;-84
2023/10/18 07:30:44;;;;;;;;;;;5.60;85.00;;;;;;5067337;28;19940;-85
2023/10/18 07:33:10;;;;;;;;;;;5.60;84.90;;;;;;5069307;28;19916;-84
2023/10/18 07:35:36;;;;;;;;;;;5.70;84.80;;;;;;5068048;28;19909;-84
2023/10/18 07:38:02;;;;;;;;;;;5.60;84.80;;;;;;5074455;28;19984;-83
2023/10/18 07:40:33;;;;;;;;;;;5.60;85.10;;;;;;5070706;28;19909;-84
2023/10/18 07:42:59;;;;;;;;;;;5.70;85.00;;;;;;5070835;28;19915;-84
2023/10/18 07:45:27;;;;;;;;;;;5.70;85.00;;;;;;5075696;28;20007;-86
2023/10/18 07:47:53;;;;;;;;;;;5.80;84.80;;;;;;5073808;28;19909;-84
2023/10/18 07:53:05;;;;;;;;;;;5.90;84.80;;;;;;5069672;28;20340;-84
2023/10/18 07:55:36;;;;;;;;;;;6.00;84.20;;;;;;5065832;28;19912;-84
2023/10/18 07:58:06;;;;;;;;;;;6.00;83.90;;;;;;5069632;28;19999;-84
2023/10/18 08:00:32;;;;;;;;;;;6.00;84.30;;;;;;5067703;28;19916;-84
2023/10/18 08:02:59;;;;;;;;;;;6.10;84.20;;;;;;5071000;28;19912;-84
2023/10/18 08:05:46;;;;;;;;;;;6.10;84.20;;;;;;5072571;28;19930;-84
2023/10/18 08:08:10;;;;;;;;;;;6.10;83.90;;;;;;5075713;28;19908;-85
2023/10/18 08:10:35;;;;;;;;;;;6.20;83.70;;;;;;5075080;28;19916;-86
2023/10/18 08:13:07;;;;;;;;;;;6.20;84.40;;;;;;5085700;28;19920;-84
2023/10/18 08:15:36;;;;;;;;;;;6.30;83.90;;;;;;5083283;28;19912;-85
2023/10/18 08:25:51;;;;;;;;;;;6.60;83.90;;;;;;5083534;28;19935;-84
2023/10/18 08:28:17;;;;;;;;;;;6.70;83.90;;;;;;5072810;28;19951;-84
2023/10/18 08:33:08;;;;;;;;;;;6.80;83.30;;;;;;5082633;28;19912;-85
2023/10/18 08:35:34;;;;;;;;;;;6.80;82.50;;;;;;5074349;28;19948;-84
2023/10/18 08:38:01;;;;;;;;;;;6.80;82.60;;;;;;5070701;28;19959;-83
2023/10/18 08:40:27;;;;;;;;;;;7.00;82.50;;;;;;5069692;28;19932;-84
2023/10/18 08:42:57;;;;;;;;;;;7.00;82.30;;;;;;5071002;28;19931;-83
2023/10/18 08:45:23;;;;;;;;;;;7.00;82.20;;;;;;5069991;28;19915;-84
2023/10/18 08:47:52;;;;;;;;;;;7.00;82.50;;;;;;5071800;28;19908;-84
2023/10/18 08:50:18;;;;;;;;;;;7.10;82.50;;;;;;5074697;28;19916;-84
2023/10/18 08:52:47;;;;;;;;;;;7.20;83.00;;;;;;5073864;28;20418;-84
2023/10/18 08:55:19;;;;;;;;;;;7.30;82.70;;;;;;5063026;28;19916;-84
2023/10/18 08:57:46;;;;;;;;;;;7.30;82.70;;;;;;5072903;28;19913;-83
2023/10/18 09:01:02;;;;;;;;;;;7.40;83.30;;;;;;5071970;28;20011;-84
2023/10/18 09:03:07;;;;;;;;;;;7.50;82.20;;;;;;5066801;28;19915;-83
2023/10/18 09:05:35;;;;;;;;;;;7.60;82.30;;;;;;5072293;28;19909;-86
2023/10/18 09:08:03;;;;;;;;;;;7.60;82.30;;;;;;5077163;28;19916;-83
2023/10/18 09:18:19;;;;;;;;;;;8.00;80.90;;;;;;5070360;28;19966;-85
2023/10/18 09:20:46;;;;;;;;;;;8.10;80.60;;;;;;5069065;28;19913;-85
2023/10/18 09:23:21;;;;;;;;;;;8.10;80.50;;;;;;5067867;28;19999;-84
2023/10/18 09:25:49;;;;;;;;;;;8.30;80.80;;;;;;5071652;28;19908;-84
2023/10/18 09:30:54;;;;;;;;;;;8.50;80.30;;;;;;5077199;28;19912;-84
2023/10/18 09:33:20;;;;;;;;;;;8.50;79.60;;;;;;5072676;28;19909;-90
2023/10/18 09:35:48;;;;;;;;;;;8.50;79.20;;;;;;5069786;28;19913;-86
2023/10/18 09:38:17;;;;;;;;;;;8.60;79.20;;;;;;5074760;28;20005;-84
2023/10/18 09:40:42;;;;;;;;;;;8.70;78.60;;;;;;5069888;28;19908;-85
2023/10/18 09:43:08;;;;;;;;;;;8.70;78.60;;;;;;5070958;28;20373;-86
2023/10/18 09:45:33;;;;;;;;;;;8.80;79.00;;;;;;5071875;28;19912;-85
2023/10/18 09:47:59;;;;;;;;;;;8.80;79.00;;;;;;5070005;28;20320;-85
2023/10/18 09:50:31;;;;;;;;;;;9.00;77.90;;;;;;5070697;28;20011;-84
2023/10/18 09:52:57;;;;;;;;;;;9.00;77.20;;;;;;5069649;28;19969;-85
2023/10/18 09:55:25;;;;;;;;;;;9.10;77.20;;;;;;5063089;28;19909;-84
2023/10/18 09:58:04;;;;;;;;;;;9.10;77.70;;;;;;5073205;28;19916;-84
2023/10/18 10:00:30;;;;;;;;;;;9.10;77.30;;;;;;5073735;28;19912;-85
2023/10/18 10:02:56;;;;;;;;;;;9.10;77.50;;;;;;5072345;28;20368;-88
2023/10/18 10:05:25;;;;;;;;;;;9.20;77.40;;;;;;5069109;28;19940;-87
2023/10/18 10:07:55;;;;;;;;;;;9.30;76.60;;;;;;5069404;28;19922;-86
2023/10/18 10:10:24;;;;;;;;;;;9.30;76.60;;;;;;5069776;28;19923;-85
2023/10/18 10:12:57;;;;;;;;;;;9.40;76.90;;;;;;5070531;28;19916;-84
2023/10/18 10:15:24;;;;;;;;;;;9.40;77.30;;;;;;5077302;28;19912;-84
2023/10/18 10:17:57;;;;;;;;;;;9.40;76.80;;;;;;5071111;28;19917;-85
2023/10/18 10:20:29;;;;;;;;;;;9.50;76.50;;;;;;5067968;28;19927;-84
2023/10/18 10:23:00;;;;;;;;;;;9.60;76.80;;;;;;5071428;28;19913;-83
2023/10/18 10:25:31;;;;;;;;;;;9.60;76.70;;;;;;5069169;28;19913;-83
2023/10/18 10:27:59;;;;;;;;;;;9.60;76.70;;;;;;5082028;28;19979;-86
2023/10/18 10:30:34;;;;;;;;;;;9.50;77.20;;;;;;5087331;28;19916;-89
2023/10/18 10:32:59;;;;;;;;;;;9.60;77.50;;;;;;5089543;28;19976;-85
2023/10/18 10:35:28;;;;;;;;;;;9.60;77.40;;;;;;5088202;28;19908;-86
2023/10/18 10:38:00;;;;;;;;;;;9.70;77.20;;;;;;5083378;28;19990;-85
2023/10/18 10:43:01;;;;;;;;;;;9.90;76.50;;;;;;5082409;28;20015;-83
2023/10/18 10:45:38;;;;;;;;;;;10.00;76.00;;;;;;5083710;28;19995;-85
2023/10/18 10:48:16;;;;;;;;;;;10.10;76.80;;;;;;5087960;28;19900;-87
2023/10/18 10:50:42;;;;;;;;;;;10.20;76.40;;;;;;5079258;28;20297;-83
2023/10/18 10:53:11;;;;;;;;;;;10.30;76.00;;;;;;5076139;28;19913;-83
2023/10/18 10:55:38;;;;;;;;;;;10.40;76.20;;;;;;5073931;28;19912;-84
2023/10/18 10:58:18;;;;;;;;;;;10.50;75.90;;;;;;5070747;28;19979;-81
2023/10/18 11:01:03;;;;;;;;;;;10.60;76.80;;;;;;5070123;28;19935;-83
2023/10/18 11:03:53;;;;;;;;;;;10.70;76.70;;;;;;5055678;28;19989;-83
2023/10/18 11:06:22;;;;;;;;;;;10.70;76.20;;;;;;5066493;28;19955;-82
2023/10/18 11:08:49;;;;;;;;;;;10.80;76.50;;;;;;5068590;28;20068;-86
2023/10/18 11:11:15;;;;;;;;;;;11.00;74.80;;;;;;5073518;28;19912;-84
2023/10/18 11:13:41;;;;;;;;;;;11.00;75.10;;;;;;5074342;28;19917;-86
2023/10/18 11:16:07;;;;;;;;;;;11.00;74.90;;;;;;5071166;28;19927;-83
2023/10/18 11:18:39;;;;;;;;;;;11.00;75.20;;;;;;5069670;28;19912;-83
2023/10/18 11:21:05;;;;;;;;;;;11.00;74.70;;;;;;5064518;28;19975;-83
2023/10/18 11:23:33;;;;;;;;;;;11.10;75.30;;;;;;5069565;28;19971;-83
2023/10/18 11:25:59;;;;;;;;;;;11.10;75.00;;;;;;5074665;28;19920;-86
2023/10/18 11:28:28;;;;;;;;;;;11.20;75.00;;;;;;5074404;28;20357;-85
2023/10/18 11:30:56;;;;;;;;;;;11.10;75.50;;;;;;5070949;28;19913;-89
2023/10/18 11:33:37;;;;;;;;;;;11.10;75.40;;;;;;5090999;28;19951;-84
2023/10/18 11:36:08;;;;;;;;;;;11.20;74.90;;;;;;5077713;28;19916;-84
2023/10/18 11:38:34;;;;;;;;;;;11.40;74.90;;;;;;5075868;28;19964;-86
2023/10/18 11:41:04;;;;;;;;;;;11.50;74.60;;;;;;5076408;28;19913;-85
2023/10/18 11:43:39;;;;;;;;;;;11.50;74.20;;;;;;5075589;28;19962;-84
2023/10/18 11:46:05;;;;;;;;;;;11.50;74.70;;;;;;5075826;28;19916;-85
2023/10/18 11:48:32;;;;;;;;;;;11.60;73.60;;;;;;5079590;28;20007;-85
2023/10/18 11:50:58;;;;;;;;;;;11.60;74.00;;;;;;5077418;28;19955;-84
2023/10/18 11:53:26;;;;;;;;;;;11.70;73.50;;;;;;5075436;28;19912;-84
2023/10/18 11:56:01;;;;;;;;;;;12.00;73.60;;;;;;5075799;28;19921;-84
2023/10/18 11:58:28;;;;;;;;;;;12.00;73.20;;;;;;5072600;28;19912;-84
2023/10/18 12:01:13;;;;;;;;;;;12.00;73.40;;;;;;5076579;28;19959;-86
2023/10/18 12:03:38;;;;;;;;;;;12.00;73.00;;;;;;5080033;28;19935;-85
2023/10/18 12:06:04;;;;;;;;;;;12.00;72.00;;;;;;5075568;28;19999;-86
2023/10/18 12:09:30;;;;;;;;;;;12.00;73.00;;;;;;5078613;28;19932;-87
2023/10/18 12:11:31;;;;;;;;;;;12.10;73.40;;;;;;5071046;28;19912;-86
2023/10/18 12:13:57;;;;;;;;;;;12.10;72.80;;;;;;5080308;28;19912;-87
2023/10/18 12:16:23;;;;;;;;;;;12.20;71.80;;;;;;5081973;28;19924;-87
2023/10/18 12:18:52;;;;;;;;;;;12.20;71.50;;;;;;5083015;28;20011;-88
2023/10/18 12:21:29;;;;;;;;;;;12.30;70.80;;;;;;5074704;28;20293;-89
2023/10/18 12:24:15;;;;;;;;;;;12.30;71.90;;;;;;5081735;28;19916;-88
2023/10/18 12:26:45;;;;;;;;;;;12.30;71.80;;;;;;5071572;28;19919;-86
2023/10/18 12:29:15;;;;;;;;;;;12.40;71.50;;;;;;5080823;28;19916;-84
2023/10/18 12:31:42;;;;;;;;;;;12.50;71.60;;;;;;5066704;28;19919;-85
2023/10/18 12:34:09;;;;;;;;;;;12.50;71.70;;;;;;5078221;28;20399;-87
2023/10/18 12:36:38;;;;;;;;;;;12.60;71.20;;;;;;5065687;28;19964;-86
2023/10/18 12:39:09;;;;;;;;;;;12.60;71.40;;;;;;5074394;28;19935;-86
2023/10/18 12:41:39;;;;;;;;;;;12.70;70.70;;;;;;5072195;28;19924;-85
2023/10/18 12:44:10;;;;;;;;;;;12.80;69.80;;;;;;5074792;28;19917;-86
2023/10/18 12:46:37;;;;;;;;;;;12.70;70.40;;;;;;5067006;28;20345;-85
2023/10/18 12:49:10;;;;;;;;;;;12.70;70.40;;;;;;5082572;28;20308;-86
2023/10/18 12:51:40;;;;;;;;;;;12.70;69.80;;;;;;5074250;28;19914;-84
2023/10/18 12:54:08;;;;;;;;;;;12.60;70.60;;;;;;5074814;28;19912;-86
2023/10/18 12:56:37;;;;;;;;;;;12.60;70.10;;;;;;5072368;28;19974;-86
2023/10/18 13:04:07;;;;;;;;;;;12.60;70.70;;;;;;5068817;28;19917;-86
2023/10/18 13:06:41;;;;;;;;;;;12.70;71.40;;;;;;5069613;28;19916;-87
2023/10/18 13:14:05;;;;;;;;;;;12.90;71.20;;;;;;5073321;28;19912;-85
2023/10/18 13:16:34;;;;;;;;;;;12.90;70.30;;;;;;5074204;28;20389;-85
2023/10/18 13:19:00;;;;;;;;;;;12.90;70.90;;;;;;5075333;28;20327;-87
2023/10/18 13:21:27;;;;;;;;;;;12.90;71.10;;;;;;5067740;28;19913;-86
2023/10/18 13:23:57;;;;;;;;;;;12.90;71.20;;;;;;5072975;28;20274;-86
2023/10/18 13:26:27;;;;;;;;;;;13.00;69.80;;;;;;5070805;28;19952;-86
2023/10/18 13:28:59;;;;;;;;;;;13.00;70.80;;;;;;5072615;28;19923;-86
2023/10/18 13:31:30;;;;;;;;;;;13.10;70.80;;;;;;5064172;28;20350;-85
2023/10/18 13:33:56;;;;;;;;;;;13.10;71.40;;;;;;5069090;28;19958;-86
2023/10/18 13:36:22;;;;;;;;;;;13.10;70.60;;;;;;5069515;28;19916;-86
2023/10/18 13:38:49;;;;;;;;;;;13.10;71.40;;;;;;5068358;28;19909;-85
2023/10/18 13:41:15;;;;;;;;;;;13.10;70.90;;;;;;5073496;28;19928;-84
2023/10/18 13:43:41;;;;;;;;;;;13.10;70.70;;;;;;5067943;28;20264;-86
2023/10/18 13:46:08;;;;;;;;;;;13.10;70.40;;;;;;5070743;28;19993;-85
2023/10/18 13:48:33;;;;;;;;;;;13.20;70.40;;;;;;5068850;28;19912;-85
2023/10/18 13:51:02;;;;;;;;;;;13.20;69.30;;;;;;5070022;28;19930;-85
2023/10/18 13:53:27;;;;;;;;;;;13.20;69.40;;;;;;5064075;28;19912;-86
2023/10/18 13:55:59;;;;;;;;;;;13.20;70.10;;;;;;5072619;28;19976;-86
2023/10/18 13:58:24;;;;;;;;;;;13.30;70.30;;;;;;5076186;28;19909;-86
2023/10/18 14:00:51;;;;;;;;;;;13.30;69.00;;;;;;5083157;28;19931;-85
2023/10/18 14:03:19;;;;;;;;;;;13.30;69.70;;;;;;5068538;28;19939;-88
2023/10/18 14:05:45;;;;;;;;;;;13.30;68.90;;;;;;5068108;28;19924;-87
2023/10/18 14:08:16;;;;;;;;;;;13.30;68.80;;;;;;5064625;28;19915;-86
2023/10/18 14:10:45;;;;;;;;;;;13.40;69.20;;;;;;5071504;28;19974;-85
2023/10/18 14:13:10;;;;;;;;;;;13.40;68.10;;;;;;5068767;28;19984;-87
2023/10/18 14:15:39;;;;;;;;;;;13.50;69.80;;;;;;5064325;28;19970;-86
2023/10/18 14:21:24;;;;;;;;;;;13.40;68.50;;;;;;5070408;28;19912;-87
2023/10/18 14:23:54;;;;;;;;;;;13.50;67.30;;;;;;5062285;28;20133;-88
2023/10/18 14:26:38;;;;;;;;;;;;;;;;;;;;;
2023/10/18 14:29:08;;;;;;;;;;;13.40;68.30;;;;;;5066376;28;20006;-88
2023/10/18 14:31:47;;;;;;;;;;;;;;;;;;;;;
2023/10/18 14:34:38;;;;;;;;;;;13.50;67.70;;;;;;5062167;28;20010;-88
2023/10/18 14:40:33;;;;;;;;;;;;;;;;;;;;;
2023/10/18 14:43:08;;;;;;;;;;;13.40;67.10;;;;;;5070451;28;19991;-86
2023/10/18 14:45:41;;;;;;;;;;;13.40;68.80;;;;;;5075008;28;19917;-87
2023/10/18 14:48:07;;;;;;;;;;;13.30;68.70;;;;;;5076199;28;20304;-86
2023/10/18 14:50:40;;;;;;;;;;;13.30;68.30;;;;;;5075737;28;19944;-87
2023/10/18 14:55:55;;;;;;;;;;;13.30;68.00;;;;;;5074897;28;19912;-86
2023/10/18 14:58:23;;;;;;;;;;;13.20;68.00;;;;;;5072852;28;19912;-89
2023/10/18 15:00:49;;;;;;;;;;;13.20;68.20;;;;;;5065505;28;20329;-88
2023/10/18 15:03:22;;;;;;;;;;;13.10;68.20;;;;;;5077708;28;19913;-88
2023/10/18 15:05:54;;;;;;;;;;;13.10;68.70;;;;;;5070094;28;19915;-85
2023/10/18 15:08:25;;;;;;;;;;;13.10;68.40;;;;;;5068460;28;19908;-88
2023/10/18 15:11:23;;;;;;;;;;;13.10;68.60;;;;;;5072332;28;19912;-87
2023/10/18 15:13:54;;;;;;;;;;;13.00;68.90;;;;;;5072939;28;19915;-87
2023/10/18 15:16:20;;;;;;;;;;;12.90;68.70;;;;;;5072601;28;19913;-88
2023/10/18 15:18:54;;;;;;;;;;;12.90;68.60;;;;;;5073378;28;19951;-91
2023/10/18 15:21:19;;;;;;;;;;;12.90;69.20;;;;;;5067710;28;19913;-87
2023/10/18 15:23:45;;;;;;;;;;;13.00;69.90;;;;;;5078822;28;19916;-86
2023/10/18 15:26:11;;;;;;;;;;;12.90;69.40;;;;;;5067766;28;20402;-86
2023/10/18 15:28:36;;;;;;;;;;;12.90;68.90;;;;;;5075912;28;19908;-86
2023/10/18 15:31:06;;;;;;;;;;;12.90;69.30;;;;;;5071207;28;19959;-87
2023/10/18 15:33:31;;;;;;;;;;;12.90;69.20;;;;;;5067905;28;19913;-88
2023/10/18 15:35:57;;;;;;;;;;;12.80;69.10;;;;;;5074636;28;19915;-87
2023/10/18 15:38:23;;;;;;;;;;;12.80;69.40;;;;;;5070138;28;19908;-87
2023/10/18 15:40:48;;;;;;;;;;;12.80;69.90;;;;;;5062097;28;19909;-86
2023/10/18 15:43:15;;;;;;;;;;;12.80;69.20;;;;;;5073850;28;19913;-87
2023/10/18 15:45:47;;;;;;;;;;;12.80;68.90;;;;;;5063938;28;20275;-85
2023/10/18 15:48:13;;;;;;;;;;;12.80;68.40;;;;;;5064459;28;20350;-86
2023/10/18 15:50:39;;;;;;;;;;;12.80;67.90;;;;;;5074377;28;19988;-85
2023/10/18 15:53:06;;;;;;;;;;;12.80;67.60;;;;;;5067757;28;19913;-85
2023/10/18 15:55:31;;;;;;;;;;;12.70;67.30;;;;;;5070071;28;20386;-86
2023/10/18 15:57:56;;;;;;;;;;;12.70;67.00;;;;;;5068497;28;20012;-85
2023/10/18 16:00:22;;;;;;;;;;;12.70;66.90;;;;;;5070969;28;19927;-85